sensor_id;sensor_type;location;lat;lon;timestamp;pressure;altitude;pressure_sealevel;temperature;humidity
20942;BME280;10630;53.734;10.282;2023-02-25T00:01:43;99393.59;;;6.16;84.66
20942;BME280;10630;53.734;10.282;2023-02-25T00:04:28;99394.09;;;6.20;83.48
20942;BME280;10630;53.734;10.282;2023-02-25T00:06:55;99393.03;;;6.38;84.72
20942;BME280;10630;53.734;10.282;2023-02-25T00:09:23;99401.06;;;5.96;86.06
20942;BME280;10630;53.734;10.282;2023-02-25T00:11:51;99404.59;;;5.72;87.23
20942;BME280;10630;53.734;10.282;2023-02-25T00:14:19;99408.19;;;6.04;88.21
20942;BME280;10630;53.734;10.282;2023-02-25T00:16:48;99406.34;;;5.96;87.50
20942;BME280;10630;53.734;10.282;2023-02-25T00:19:16;99412.31;;;5.74;87.15
20942;BME280;10630;53.734;10.282;2023-02-25T00:21:45;99411.03;;;5.69;88.94
20942;BME280;10630;53.734;10.282;2023-02-25T00:24:14;99417.13;;;6.43;87.96
20942;BME280;10630;53.734;10.282;2023-02-25T00:26:43;99418.16;;;6.25;87.24
20942;BME280;10630;53.734;10.282;2023-02-25T00:29:10;99427.78;;;6.10;88.64
20942;BME280;10630;53.734;10.282;2023-02-25T00:31:43;99421.19;;;6.22;86.84
20942;BME280;10630;53.734;10.282;2023-02-25T00:34:11;99423.63;;;6.63;85.75
20942;BME280;10630;53.734;10.282;2023-02-25T00:36:39;99423.38;;;6.50;84.08
20942;BME280;10630;53.734;10.282;2023-02-25T00:39:07;99422.91;;;6.46;86.43
20942;BME280;10630;53.734;10.282;2023-02-25T00:41:34;99440.69;;;5.88;88.78
20942;BME280;10630;53.734;10.282;2023-02-25T00:44:02;99448.59;;;5.88;90.30
20942;BME280;10630;53.734;10.282;2023-02-25T00:46:29;99449.28;;;5.74;94.88
20942;BME280;10630;53.734;10.282;2023-02-25T00:49:00;99447.63;;;5.64;97.29
20942;BME280;10630;53.734;10.282;2023-02-25T00:51:28;99446.88;;;6.45;96.23
20942;BME280;10630;53.734;10.282;2023-02-25T00:53:59;99455.53;;;5.81;95.92
20942;BME280;10630;53.734;10.282;2023-02-25T00:56:27;99450.94;;;5.99;95.96
20942;BME280;10630;53.734;10.282;2023-02-25T00:58:54;99455.22;;;5.67;95.61
20942;BME280;10630;53.734;10.282;2023-02-25T01:01:23;99453.22;;;6.19;94.91
20942;BME280;10630;53.734;10.282;2023-02-25T01:04:01;99457.88;;;6.09;95.66
20942;BME280;10630;53.734;10.282;2023-02-25T01:06:28;99472.22;;;5.73;95.20
20942;BME280;10630;53.734;10.282;2023-02-25T01:08:57;99464.28;;;5.40;95.35
20942;BME280;10630;53.734;10.282;2023-02-25T01:11:30;99469.75;;;5.80;96.88
20942;BME280;10630;53.734;10.282;2023-02-25T01:14:06;99476.31;;;6.17;93.28
20942;BME280;10630;53.734;10.282;2023-02-25T01:16:36;99482.06;;;5.13;96.70
20942;BME280;10630;53.734;10.282;2023-02-25T01:19:10;99493.34;;;5.65;98.63
20942;BME280;10630;53.734;10.282;2023-02-25T01:21:38;99482.94;;;5.38;100.00
20942;BME280;10630;53.734;10.282;2023-02-25T01:24:11;99485.94;;;5.77;97.75
20942;BME280;10630;53.734;10.282;2023-02-25T01:26:39;99505.38;;;5.59;98.48
20942;BME280;10630;53.734;10.282;2023-02-25T01:29:08;99490.31;;;5.18;100.00
20942;BME280;10630;53.734;10.282;2023-02-25T01:31:36;99503.38;;;5.36;100.00
20942;BME280;10630;53.734;10.282;2023-02-25T01:34:04;99499.13;;;5.52;100.00
20942;BME280;10630;53.734;10.282;2023-02-25T01:36:32;99503.44;;;5.78;97.15
20942;BME280;10630;53.734;10.282;2023-02-25T01:39:05;99508.53;;;5.79;97.65
20942;BME280;10630;53.734;10.282;2023-02-25T01:41:35;99501.72;;;6.34;95.98
20942;BME280;10630;53.734;10.282;2023-02-25T01:46:45;99521.56;;;5.81;95.95
20942;BME280;10630;53.734;10.282;2023-02-25T01:49:18;99518.63;;;6.00;96.42
20942;BME280;10630;53.734;10.282;2023-02-25T01:51:48;99522.53;;;5.80;96.09
20942;BME280;10630;53.734;10.282;2023-02-25T01:54:17;99520.25;;;5.93;95.52
20942;BME280;10630;53.734;10.282;2023-02-25T01:56:46;99527.66;;;5.65;94.34
20942;BME280;10630;53.734;10.282;2023-02-25T01:59:15;99528.84;;;5.70;95.84
20942;BME280;10630;53.734;10.282;2023-02-25T02:01:44;99524.53;;;6.11;93.87
20942;BME280;10630;53.734;10.282;2023-02-25T02:04:12;99530.81;;;5.85;90.63
20942;BME280;10630;53.734;10.282;2023-02-25T02:06:42;99533.03;;;5.22;90.70
20942;BME280;10630;53.734;10.282;2023-02-25T02:09:11;99546.28;;;5.38;91.27
20942;BME280;10630;53.734;10.282;2023-02-25T02:11:40;99543.03;;;5.69;90.32
20942;BME280;10630;53.734;10.282;2023-02-25T02:14:10;99543.16;;;5.60;89.79
20942;BME280;10630;53.734;10.282;2023-02-25T02:16:43;99540.19;;;5.63;89.16
20942;BME280;10630;53.734;10.282;2023-02-25T02:22:00;99564.03;;;5.28;86.43
20942;BME280;10630;53.734;10.282;2023-02-25T02:27:29;99566.22;;;5.41;84.61
20942;BME280;10630;53.734;10.282;2023-02-25T02:30:16;99563.78;;;5.73;83.75
20942;BME280;10630;53.734;10.282;2023-02-25T02:36:07;99565.63;;;5.64;80.96
20942;BME280;10630;53.734;10.282;2023-02-25T02:41:36;99586.25;;;5.17;80.83
20942;BME280;10630;53.734;10.282;2023-02-25T02:52:23;99601.38;;;5.50;77.54
20942;BME280;10630;53.734;10.282;2023-02-25T02:54:58;99604.53;;;5.11;75.33
20942;BME280;10630;53.734;10.282;2023-02-25T02:57:27;99612.31;;;5.71;74.26
20942;BME280;10630;53.734;10.282;2023-02-25T02:59:57;99611.34;;;4.87;73.15
20942;BME280;10630;53.734;10.282;2023-02-25T03:02:30;99605.72;;;5.76;73.43
20942;BME280;10630;53.734;10.282;2023-02-25T03:05:02;99609.53;;;5.22;72.80
20942;BME280;10630;53.734;10.282;2023-02-25T03:07:33;99618.06;;;5.59;73.13
20942;BME280;10630;53.734;10.282;2023-02-25T03:10:05;99621.75;;;5.23;71.34
20942;BME280;10630;53.734;10.282;2023-02-25T03:12:33;99623.00;;;5.53;70.62
20942;BME280;10630;53.734;10.282;2023-02-25T03:15:06;99625.19;;;5.75;71.20
20942;BME280;10630;53.734;10.282;2023-02-25T03:17:35;99628.66;;;5.75;70.02
20942;BME280;10630;53.734;10.282;2023-02-25T03:20:11;99633.09;;;5.66;69.69
20942;BME280;10630;53.734;10.282;2023-02-25T03:22:42;99636.47;;;6.10;69.19
20942;BME280;10630;53.734;10.282;2023-02-25T03:25:17;99636.25;;;5.78;68.34
20942;BME280;10630;53.734;10.282;2023-02-25T03:27:46;99632.91;;;5.60;68.93
20942;BME280;10630;53.734;10.282;2023-02-25T03:30:17;99639.34;;;5.57;69.26
20942;BME280;10630;53.734;10.282;2023-02-25T03:36:00;99634.94;;;5.91;68.54
20942;BME280;10630;53.734;10.282;2023-02-25T03:38:44;99641.72;;;5.85;67.96
20942;BME280;10630;53.734;10.282;2023-02-25T03:41:12;99652.44;;;5.92;67.71
20942;BME280;10630;53.734;10.282;2023-02-25T03:43:45;99658.97;;;5.20;68.85
20942;BME280;10630;53.734;10.282;2023-02-25T03:46:13;99656.56;;;5.94;69.08
20942;BME280;10630;53.734;10.282;2023-02-25T03:48:41;99667.53;;;6.08;68.28
20942;BME280;10630;53.734;10.282;2023-02-25T03:51:09;99670.78;;;5.85;66.63
20942;BME280;10630;53.734;10.282;2023-02-25T03:53:36;99675.13;;;6.02;66.98
20942;BME280;10630;53.734;10.282;2023-02-25T03:58:52;99683.72;;;6.13;68.32
20942;BME280;10630;53.734;10.282;2023-02-25T04:01:25;99679.28;;;5.62;68.12
20942;BME280;10630;53.734;10.282;2023-02-25T04:03:53;99692.22;;;5.90;68.12
20942;BME280;10630;53.734;10.282;2023-02-25T04:06:22;99681.97;;;5.87;69.12
20942;BME280;10630;53.734;10.282;2023-02-25T04:08:51;99691.88;;;5.77;69.21
20942;BME280;10630;53.734;10.282;2023-02-25T04:11:18;99695.31;;;6.28;67.82
20942;BME280;10630;53.734;10.282;2023-02-25T04:13:46;99696.44;;;6.09;66.82
20942;BME280;10630;53.734;10.282;2023-02-25T04:16:13;99704.41;;;6.42;67.27
20942;BME280;10630;53.734;10.282;2023-02-25T04:18:41;99701.91;;;6.74;64.57
20942;BME280;10630;53.734;10.282;2023-02-25T04:21:08;99707.56;;;6.54;64.83
20942;BME280;10630;53.734;10.282;2023-02-25T04:23:36;99716.75;;;6.25;67.05
20942;BME280;10630;53.734;10.282;2023-02-25T04:26:03;99721.50;;;5.54;69.64
20942;BME280;10630;53.734;10.282;2023-02-25T04:28:31;99719.25;;;6.68;68.91
20942;BME280;10630;53.734;10.282;2023-02-25T04:30:59;99728.97;;;6.18;70.96
20942;BME280;10630;53.734;10.282;2023-02-25T04:33:27;99728.50;;;6.23;71.01
20942;BME280;10630;53.734;10.282;2023-02-25T04:35:54;99729.28;;;6.07;70.40
20942;BME280;10630;53.734;10.282;2023-02-25T04:38:22;99737.69;;;6.02;71.05
20942;BME280;10630;53.734;10.282;2023-02-25T04:40:50;99730.34;;;6.30;70.53
20942;BME280;10630;53.734;10.282;2023-02-25T04:43:20;99741.41;;;5.48;71.46
20942;BME280;10630;53.734;10.282;2023-02-25T04:45:47;99732.69;;;5.21;73.01
20942;BME280;10630;53.734;10.282;2023-02-25T04:48:16;99734.22;;;5.59;71.82
20942;BME280;10630;53.734;10.282;2023-02-25T04:50:49;99730.28;;;6.14;72.88
20942;BME280;10630;53.734;10.282;2023-02-25T04:53:18;99732.78;;;5.73;72.48
20942;BME280;10630;53.734;10.282;2023-02-25T04:55:48;99733.63;;;6.24;73.55
20942;BME280;10630;53.734;10.282;2023-02-25T04:58:16;99731.19;;;6.80;71.20
20942;BME280;10630;53.734;10.282;2023-02-25T05:00:49;99739.63;;;5.57;73.60
20942;BME280;10630;53.734;10.282;2023-02-25T05:03:18;99740.03;;;5.70;75.64
20942;BME280;10630;53.734;10.282;2023-02-25T05:05:46;99738.06;;;5.73;75.05
20942;BME280;10630;53.734;10.282;2023-02-25T05:08:13;99729.50;;;6.46;73.93
20942;BME280;10630;53.734;10.282;2023-02-25T05:10:41;99737.59;;;5.16;74.38
20942;BME280;10630;53.734;10.282;2023-02-25T05:13:18;99742.66;;;6.13;74.97
20942;BME280;10630;53.734;10.282;2023-02-25T05:15:45;99738.09;;;5.81;76.08
20942;BME280;10630;53.734;10.282;2023-02-25T05:18:13;99742.19;;;5.75;74.35
20942;BME280;10630;53.734;10.282;2023-02-25T05:20:41;99749.97;;;5.77;73.20
20942;BME280;10630;53.734;10.282;2023-02-25T05:23:11;99748.44;;;6.17;74.75
20942;BME280;10630;53.734;10.282;2023-02-25T05:25:39;99758.88;;;5.76;75.16
20942;BME280;10630;53.734;10.282;2023-02-25T05:28:10;99758.94;;;5.92;74.76
20942;BME280;10630;53.734;10.282;2023-02-25T05:30:38;99764.50;;;5.81;75.68
20942;BME280;10630;53.734;10.282;2023-02-25T05:33:07;99768.84;;;5.55;75.69
20942;BME280;10630;53.734;10.282;2023-02-25T05:35:48;99765.41;;;5.37;76.68
20942;BME280;10630;53.734;10.282;2023-02-25T05:38:16;99790.72;;;5.21;79.26
20942;BME280;10630;53.734;10.282;2023-02-25T05:40:45;99781.63;;;5.42;80.95
20942;BME280;10630;53.734;10.282;2023-02-25T05:43:13;99788.00;;;5.58;80.21
20942;BME280;10630;53.734;10.282;2023-02-25T05:45:41;99798.53;;;5.05;81.68
20942;BME280;10630;53.734;10.282;2023-02-25T05:48:08;99794.41;;;5.55;82.85
20942;BME280;10630;53.734;10.282;2023-02-25T05:50:43;99800.47;;;5.47;83.15
20942;BME280;10630;53.734;10.282;2023-02-25T05:53:11;99811.69;;;5.49;83.78
20942;BME280;10630;53.734;10.282;2023-02-25T05:55:42;99807.41;;;5.22;84.84
20942;BME280;10630;53.734;10.282;2023-02-25T05:58:09;99814.66;;;5.02;83.97
20942;BME280;10630;53.734;10.282;2023-02-25T06:00:42;99819.97;;;5.54;83.46
20942;BME280;10630;53.734;10.282;2023-02-25T06:03:09;99815.50;;;5.81;81.89
20942;BME280;10630;53.734;10.282;2023-02-25T06:05:40;99828.44;;;5.14;82.24
20942;BME280;10630;53.734;10.282;2023-02-25T06:08:10;99823.59;;;5.27;83.23
20942;BME280;10630;53.734;10.282;2023-02-25T06:10:38;99839.97;;;4.58;85.17
20942;BME280;10630;53.734;10.282;2023-02-25T06:15:54;99842.19;;;4.63;85.63
20942;BME280;10630;53.734;10.282;2023-02-25T06:18:24;99850.28;;;5.24;82.98
20942;BME280;10630;53.734;10.282;2023-02-25T06:20:51;99864.94;;;4.36;84.65
20942;BME280;10630;53.734;10.282;2023-02-25T06:23:22;99867.03;;;4.33;86.92
20942;BME280;10630;53.734;10.282;2023-02-25T06:25:49;99874.50;;;4.37;88.96
20942;BME280;10630;53.734;10.282;2023-02-25T06:28:16;99885.31;;;4.34;91.57
20942;BME280;10630;53.734;10.282;2023-02-25T06:30:44;99881.47;;;4.74;91.99
20942;BME280;10630;53.734;10.282;2023-02-25T06:33:11;99886.22;;;4.25;90.49
20942;BME280;10630;53.734;10.282;2023-02-25T06:35:38;99893.31;;;4.70;87.80
20942;BME280;10630;53.734;10.282;2023-02-25T06:38:05;99892.16;;;4.55;87.52
20942;BME280;10630;53.734;10.282;2023-02-25T06:40:33;99906.81;;;4.85;85.83
20942;BME280;10630;53.734;10.282;2023-02-25T06:43:02;99914.19;;;4.36;86.47
20942;BME280;10630;53.734;10.282;2023-02-25T06:45:30;99918.38;;;4.28;88.37
20942;BME280;10630;53.734;10.282;2023-02-25T06:47:58;99918.00;;;4.41;89.38
20942;BME280;10630;53.734;10.282;2023-02-25T06:50:32;99921.31;;;3.68;93.28
20942;BME280;10630;53.734;10.282;2023-02-25T06:52:59;99933.53;;;3.40;98.10
20942;BME280;10630;53.734;10.282;2023-02-25T06:55:26;99940.56;;;3.59;99.10
20942;BME280;10630;53.734;10.282;2023-02-25T06:57:55;99936.13;;;3.69;98.45
20942;BME280;10630;53.734;10.282;2023-02-25T07:00:24;99945.69;;;3.51;96.79
20942;BME280;10630;53.734;10.282;2023-02-25T07:02:54;99941.81;;;4.50;92.49
20942;BME280;10630;53.734;10.282;2023-02-25T07:05:23;99938.06;;;3.67;91.26
20942;BME280;10630;53.734;10.282;2023-02-25T07:07:50;99945.94;;;4.62;91.33
20942;BME280;10630;53.734;10.282;2023-02-25T07:10:17;99952.91;;;4.53;90.07
20942;BME280;10630;53.734;10.282;2023-02-25T07:12:46;99951.22;;;4.62;86.60
20942;BME280;10630;53.734;10.282;2023-02-25T07:15:13;99954.50;;;4.64;86.81
20942;BME280;10630;53.734;10.282;2023-02-25T07:17:47;99954.88;;;4.51;87.97
20942;BME280;10630;53.734;10.282;2023-02-25T07:20:15;99962.69;;;4.33;86.27
20942;BME280;10630;53.734;10.282;2023-02-25T07:22:43;99963.03;;;4.86;87.51
20942;BME280;10630;53.734;10.282;2023-02-25T07:25:10;99979.31;;;4.71;85.29
20942;BME280;10630;53.734;10.282;2023-02-25T07:27:47;99969.25;;;4.57;86.57
20942;BME280;10630;53.734;10.282;2023-02-25T07:30:15;99976.16;;;5.50;83.55
20942;BME280;10630;53.734;10.282;2023-02-25T07:32:43;99974.38;;;4.86;84.21
20942;BME280;10630;53.734;10.282;2023-02-25T07:35:11;99981.63;;;4.56;83.40
20942;BME280;10630;53.734;10.282;2023-02-25T07:37:46;99988.13;;;4.62;84.53
20942;BME280;10630;53.734;10.282;2023-02-25T07:40:13;99990.34;;;4.57;83.40
20942;BME280;10630;53.734;10.282;2023-02-25T07:42:44;99996.75;;;4.82;82.97
20942;BME280;10630;53.734;10.282;2023-02-25T07:45:11;99992.66;;;4.98;83.01
20942;BME280;10630;53.734;10.282;2023-02-25T07:47:38;99996.50;;;4.75;80.26
20942;BME280;10630;53.734;10.282;2023-02-25T07:52:58;100031.13;;;4.90;82.50
20942;BME280;10630;53.734;10.282;2023-02-25T07:55:29;100040.75;;;4.82;84.04
20942;BME280;10630;53.734;10.282;2023-02-25T07:57:56;100053.75;;;3.78;91.75
20942;BME280;10630;53.734;10.282;2023-02-25T08:00:31;100039.56;;;4.28;96.67
20942;BME280;10630;53.734;10.282;2023-02-25T08:02:59;100056.44;;;4.73;95.87
20942;BME280;10630;53.734;10.282;2023-02-25T08:05:28;100054.53;;;3.49;98.39
20942;BME280;10630;53.734;10.282;2023-02-25T08:07:55;100054.56;;;3.69;100.00
20942;BME280;10630;53.734;10.282;2023-02-25T08:10:22;100060.31;;;3.14;100.00
20942;BME280;10630;53.734;10.282;2023-02-25T08:12:50;100074.13;;;3.06;100.00
20942;BME280;10630;53.734;10.282;2023-02-25T08:15:17;100069.66;;;3.67;100.00
20942;BME280;10630;53.734;10.282;2023-02-25T08:17:45;100070.41;;;3.19;100.00
20942;BME280;10630;53.734;10.282;2023-02-25T08:20:17;100072.69;;;3.33;100.00
20942;BME280;10630;53.734;10.282;2023-02-25T08:25:41;100073.66;;;3.61;99.23
20942;BME280;10630;53.734;10.282;2023-02-25T08:28:17;100069.75;;;4.34;96.05
20942;BME280;10630;53.734;10.282;2023-02-25T08:30:44;100083.22;;;4.11;96.07
20942;BME280;10630;53.734;10.282;2023-02-25T08:33:12;100084.19;;;3.52;97.68
20942;BME280;10630;53.734;10.282;2023-02-25T08:35:49;100082.25;;;4.32;95.65
20942;BME280;10630;53.734;10.282;2023-02-25T08:38:18;100086.56;;;4.04;93.30
20942;BME280;10630;53.734;10.282;2023-02-25T08:40:55;100092.41;;;4.07;94.34
20942;BME280;10630;53.734;10.282;2023-02-25T08:43:25;100105.47;;;4.66;93.16
20942;BME280;10630;53.734;10.282;2023-02-25T08:46:05;100108.88;;;3.70;97.20
20942;BME280;10630;53.734;10.282;2023-02-25T08:48:33;100107.44;;;3.37;100.00
20942;BME280;10630;53.734;10.282;2023-02-25T08:51:06;100121.63;;;4.14;100.00
20942;BME280;10630;53.734;10.282;2023-02-25T08:53:35;100131.72;;;3.70;100.00
20942;BME280;10630;53.734;10.282;2023-02-25T08:56:04;100136.06;;;3.30;100.00
20942;BME280;10630;53.734;10.282;2023-02-25T08:58:31;100134.09;;;3.83;100.00
20942;BME280;10630;53.734;10.282;2023-02-25T09:03:34;100133.66;;;4.56;100.00
20942;BME280;10630;53.734;10.282;2023-02-25T09:06:03;100142.84;;;4.32;100.00
20942;BME280;10630;53.734;10.282;2023-02-25T09:08:29;100144.78;;;4.20;100.00
20942;BME280;10630;53.734;10.282;2023-02-25T09:10:57;100154.16;;;4.52;100.00
20942;BME280;10630;53.734;10.282;2023-02-25T09:13:32;100151.59;;;4.23;100.00
20942;BME280;10630;53.734;10.282;2023-02-25T09:15:59;100165.03;;;4.20;100.00
20942;BME280;10630;53.734;10.282;2023-02-25T09:18:27;100165.81;;;4.69;100.00
20942;BME280;10630;53.734;10.282;2023-02-25T09:20:56;100164.50;;;4.93;100.00
20942;BME280;10630;53.734;10.282;2023-02-25T09:25:53;100182.06;;;4.35;100.00
20942;BME280;10630;53.734;10.282;2023-02-25T09:28:22;100180.16;;;4.27;97.31
20942;BME280;10630;53.734;10.282;2023-02-25T09:30:50;100179.25;;;4.86;97.33
20942;BME280;10630;53.734;10.282;2023-02-25T09:33:25;100184.72;;;4.55;97.62
20942;BME280;10630;53.734;10.282;2023-02-25T09:35:52;100192.91;;;4.42;99.69
20942;BME280;10630;53.734;10.282;2023-02-25T09:38:21;100197.38;;;4.99;98.12
20942;BME280;10630;53.734;10.282;2023-02-25T09:40:49;100195.78;;;5.26;94.91
20942;BME280;10630;53.734;10.282;2023-02-25T09:43:26;100189.25;;;5.58;91.54
20942;BME280;10630;53.734;10.282;2023-02-25T09:46:03;100201.75;;;5.18;91.23
20942;BME280;10630;53.734;10.282;2023-02-25T09:48:34;100209.22;;;5.88;87.87
20942;BME280;10630;53.734;10.282;2023-02-25T09:51:06;100215.50;;;5.21;88.15
20942;BME280;10630;53.734;10.282;2023-02-25T09:53:41;100224.19;;;4.84;85.34
20942;BME280;10630;53.734;10.282;2023-02-25T09:56:13;100225.19;;;4.73;83.27
20942;BME280;10630;53.734;10.282;2023-02-25T09:58:45;100230.22;;;5.24;79.89
20942;BME280;10630;53.734;10.282;2023-02-25T10:01:17;100239.88;;;4.96;75.37
20942;BME280;10630;53.734;10.282;2023-02-25T10:17:09;100276.53;;;4.79;65.37
20942;BME280;10630;53.734;10.282;2023-02-25T10:27:42;100298.50;;;5.37;68.38
20942;BME280;10630;53.734;10.282;2023-02-25T10:32:50;100312.47;;;4.80;72.18
20942;BME280;10630;53.734;10.282;2023-02-25T10:35:21;100308.19;;;4.79;73.34
20942;BME280;10630;53.734;10.282;2023-02-25T10:37:56;100305.59;;;5.36;73.57
20942;BME280;10630;53.734;10.282;2023-02-25T10:40:25;100295.25;;;4.96;71.63
20942;BME280;10630;53.734;10.282;2023-02-25T10:42:57;100319.41;;;4.71;71.88
20942;BME280;10630;53.734;10.282;2023-02-25T10:45:27;100316.34;;;5.05;72.11
20942;BME280;10630;53.734;10.282;2023-02-25T10:48:38;100324.25;;;5.05;71.83
20942;BME280;10630;53.734;10.282;2023-02-25T10:53:32;100322.41;;;5.35;71.50
20942;BME280;10630;53.734;10.282;2023-02-25T10:55:59;100335.66;;;4.96;68.31
20942;BME280;10630;53.734;10.282;2023-02-25T10:58:30;100339.47;;;5.51;69.79
20942;BME280;10630;53.734;10.282;2023-02-25T11:01:06;100347.16;;;5.25;68.42
20942;BME280;10630;53.734;10.282;2023-02-25T11:06:32;100356.50;;;4.89;67.60
20942;BME280;10630;53.734;10.282;2023-02-25T11:09:04;100347.75;;;5.09;65.93
20942;BME280;10630;53.734;10.282;2023-02-25T11:11:34;100345.47;;;5.23;65.19
20942;BME280;10630;53.734;10.282;2023-02-25T11:14:05;100350.63;;;6.20;66.29
20942;BME280;10630;53.734;10.282;2023-02-25T11:16:34;100350.72;;;6.00;63.34
20942;BME280;10630;53.734;10.282;2023-02-25T11:19:26;100348.19;;;6.37;64.08
20942;BME280;10630;53.734;10.282;2023-02-25T11:21:49;100369.88;;;5.45;62.58
20942;BME280;10630;53.734;10.282;2023-02-25T11:26:51;100386.59;;;5.26;62.50
20942;BME280;10630;53.734;10.282;2023-02-25T11:37:44;100391.47;;;5.88;58.54
20942;BME280;10630;53.734;10.282;2023-02-25T11:40:19;100411.81;;;5.78;59.06
20942;BME280;10630;53.734;10.282;2023-02-25T11:45:33;100392.44;;;6.62;60.72
20942;BME280;10630;53.734;10.282;2023-02-25T11:48:03;100401.63;;;5.83;61.08
20942;BME280;10630;53.734;10.282;2023-02-25T12:04:06;100430.88;;;5.62;61.06
20942;BME280;10630;53.734;10.282;2023-02-25T12:28:26;100451.59;;;5.27;59.37
20942;BME280;10630;53.734;10.282;2023-02-25T12:31:16;100445.50;;;5.17;57.32
20942;BME280;10630;53.734;10.282;2023-02-25T12:41:39;100443.19;;;5.91;57.90
20942;BME280;10630;53.734;10.282;2023-02-25T12:52:08;100454.84;;;5.98;57.84
20942;BME280;10630;53.734;10.282;2023-02-25T13:19:59;100470.31;;;6.40;54.61
20942;BME280;10630;53.734;10.282;2023-02-25T13:30:39;100483.25;;;5.66;53.81
20942;BME280;10630;53.734;10.282;2023-02-25T13:33:19;100498.78;;;5.89;53.74
20942;BME280;10630;53.734;10.282;2023-02-25T13:52:12;100508.53;;;6.08;52.72
20942;BME280;10630;53.734;10.282;2023-02-25T14:10:46;100534.84;;;5.70;52.88
20942;BME280;10630;53.734;10.282;2023-02-25T14:26:45;100576.63;;;5.36;52.36
20942;BME280;10630;53.734;10.282;2023-02-25T14:29:30;100560.53;;;5.68;51.30
20942;BME280;10630;53.734;10.282;2023-02-25T14:35:23;100573.31;;;5.83;50.38
20942;BME280;10630;53.734;10.282;2023-02-25T14:37:37;100585.56;;;5.84;51.13
20942;BME280;10630;53.734;10.282;2023-02-25T14:45:21;100591.94;;;5.91;51.36
20942;BME280;10630;53.734;10.282;2023-02-25T14:50:45;100588.75;;;6.37;51.75
20942;BME280;10630;53.734;10.282;2023-02-25T14:53:23;100600.16;;;6.27;51.07
20942;BME280;10630;53.734;10.282;2023-02-25T15:03:53;100624.22;;;5.85;50.73
20942;BME280;10630;53.734;10.282;2023-02-25T15:11:48;100625.38;;;5.32;48.86
20942;BME280;10630;53.734;10.282;2023-02-25T15:22:20;100643.53;;;5.95;50.42
20942;BME280;10630;53.734;10.282;2023-02-25T15:24:48;100653.78;;;5.59;50.20
20942;BME280;10630;53.734;10.282;2023-02-25T15:27:59;100652.22;;;5.47;50.34
20942;BME280;10630;53.734;10.282;2023-02-25T15:33:05;100662.00;;;5.66;50.53
20942;BME280;10630;53.734;10.282;2023-02-25T15:38:44;100666.44;;;5.75;48.92
20942;BME280;10630;53.734;10.282;2023-02-25T15:49:08;100680.72;;;5.12;49.41
20942;BME280;10630;53.734;10.282;2023-02-25T15:51:43;100675.47;;;5.22;49.77
20942;BME280;10630;53.734;10.282;2023-02-25T15:57:01;100682.22;;;5.36;50.05
20942;BME280;10630;53.734;10.282;2023-02-25T15:59:46;100689.50;;;5.63;50.46
20942;BME280;10630;53.734;10.282;2023-02-25T16:04:56;100698.69;;;5.28;50.78
20942;BME280;10630;53.734;10.282;2023-02-25T16:07:27;100703.78;;;5.20;50.34
20942;BME280;10630;53.734;10.282;2023-02-25T16:09:57;100703.78;;;5.20;51.61
20942;BME280;10630;53.734;10.282;2023-02-25T16:12:28;100703.00;;;5.29;51.14
20942;BME280;10630;53.734;10.282;2023-02-25T16:14:56;100709.75;;;4.91;51.75
20942;BME280;10630;53.734;10.282;2023-02-25T16:19:54;100714.53;;;6.29;50.53
20942;BME280;10630;53.734;10.282;2023-02-25T16:22:23;100721.41;;;5.91;50.76
20942;BME280;10630;53.734;10.282;2023-02-25T16:25:03;100728.78;;;5.47;51.16
20942;BME280;10630;53.734;10.282;2023-02-25T16:27:40;100741.47;;;5.01;52.87
20942;BME280;10630;53.734;10.282;2023-02-25T16:30:13;100744.31;;;4.67;55.47
20942;BME280;10630;53.734;10.282;2023-02-25T16:32:51;100745.63;;;4.40;57.49
20942;BME280;10630;53.734;10.282;2023-02-25T16:40:36;100754.78;;;4.99;57.11
20942;BME280;10630;53.734;10.282;2023-02-25T16:43:09;100757.63;;;5.07;56.21
20942;BME280;10630;53.734;10.282;2023-02-25T16:45:40;100759.34;;;5.18;56.23
20942;BME280;10630;53.734;10.282;2023-02-25T16:48:15;100751.69;;;5.15;55.73
20942;BME280;10630;53.734;10.282;2023-02-25T16:50:56;100768.63;;;4.91;55.38
20942;BME280;10630;53.734;10.282;2023-02-25T16:53:34;100768.19;;;5.07;56.22
20942;BME280;10630;53.734;10.282;2023-02-25T17:01:39;100782.91;;;5.31;55.16
20942;BME280;10630;53.734;10.282;2023-02-25T17:04:19;100779.78;;;5.26;54.45
20942;BME280;10630;53.734;10.282;2023-02-25T17:09:54;100783.38;;;4.94;54.82
20942;BME280;10630;53.734;10.282;2023-02-25T17:12:31;100787.22;;;4.90;54.56
20942;BME280;10630;53.734;10.282;2023-02-25T17:15:03;100790.75;;;5.00;54.54
20942;BME280;10630;53.734;10.282;2023-02-25T17:17:37;100798.00;;;5.29;53.92
20942;BME280;10630;53.734;10.282;2023-02-25T17:20:29;100790.38;;;5.57;54.30
20942;BME280;10630;53.734;10.282;2023-02-25T17:22:55;100793.50;;;4.99;53.85
20942;BME280;10630;53.734;10.282;2023-02-25T17:27:57;100804.47;;;4.94;54.42
20942;BME280;10630;53.734;10.282;2023-02-25T17:30:41;100812.03;;;5.51;54.25
20942;BME280;10630;53.734;10.282;2023-02-25T17:33:19;100807.94;;;5.16;53.78
20942;BME280;10630;53.734;10.282;2023-02-25T17:35:52;100809.53;;;5.80;54.11
20942;BME280;10630;53.734;10.282;2023-02-25T17:38:37;100824.66;;;4.84;55.44
20942;BME280;10630;53.734;10.282;2023-02-25T17:41:04;100827.50;;;4.59;56.13
20942;BME280;10630;53.734;10.282;2023-02-25T17:43:35;100830.16;;;5.13;56.54
20942;BME280;10630;53.734;10.282;2023-02-25T17:48:55;100834.28;;;4.73;56.38
20942;BME280;10630;53.734;10.282;2023-02-25T17:51:31;100837.19;;;4.91;55.18
20942;BME280;10630;53.734;10.282;2023-02-25T17:54:02;100845.31;;;4.67;54.99
20942;BME280;10630;53.734;10.282;2023-02-25T17:56:30;100843.34;;;4.81;55.65
20942;BME280;10630;53.734;10.282;2023-02-25T17:59:03;100843.13;;;4.84;55.78
20942;BME280;10630;53.734;10.282;2023-02-25T18:04:19;100848.84;;;4.89;56.49
20942;BME280;10630;53.734;10.282;2023-02-25T18:06:47;100858.56;;;5.10;56.12